Time;durP1;ratioP1;P1;durP2;ratioP2;P2;SDS_P1;SDS_P2;PMS_P1;PMS_P2;Temp;Humidity;BMP_temperature;BMP_pressure;BME280_temperature;BME280_humidity;BME280_pressure;Samples;Min_cycle;Max_cycle;Signal;HPM_P1;HPM_P2
2022/06/15 00:01:06;;;;;;;9.00;6.30;;;19.60;71.90;;;;;;5042636;28;20444;-89
2022/06/15 00:03:36;;;;;;;7.17;5.50;;;19.50;71.70;;;;;;5046389;28;20433;-89
2022/06/15 00:06:09;;;;;;;7.47;6.70;;;19.50;72.60;;;;;;5043724;28;20469;-89
2022/06/15 00:08:36;;;;;;;6.57;5.93;;;19.40;72.90;;;;;;5024890;28;20452;-88
2022/06/15 00:11:08;;;;;;;10.23;7.37;;;19.40;73.10;;;;;;5021656;28;20448;-87
2022/06/15 00:13:35;;;;;;;7.90;6.10;;;19.40;73.30;;;;;;5024801;28;20450;-87
2022/06/15 00:16:01;;;;;;;7.07;6.37;;;19.30;73.50;;;;;;5032581;28;20456;-87
2022/06/15 00:18:28;;;;;;;7.00;6.30;;;19.30;73.70;;;;;;5015855;28;20461;-87
2022/06/15 00:20:56;;;;;;;7.20;6.17;;;19.20;74.00;;;;;;5024193;28;20467;-88
2022/06/15 00:23:25;;;;;;;9.60;8.53;;;19.30;74.10;;;;;;5017524;28;20482;-88
2022/06/15 00:25:52;;;;;;;11.83;6.90;;;19.20;74.40;;;;;;5019540;28;20479;-88
2022/06/15 00:28:20;;;;;;;7.07;6.27;;;19.10;74.70;;;;;;5017537;28;20468;-88
2022/06/15 00:30:49;;;;;;;6.13;5.60;;;19.20;75.00;;;;;;5033917;28;20456;-88
2022/06/15 00:33:19;;;;;;;5.73;5.23;;;19.10;75.00;;;;;;5039988;28;20836;-88
2022/06/15 00:35:54;;;;;;;8.00;7.20;;;19.10;74.90;;;;;;5023509;28;20509;-88
2022/06/15 00:38:21;;;;;;;10.10;6.90;;;19.00;75.00;;;;;;5022474;28;20884;-87
2022/06/15 00:40:49;;;;;;;10.10;6.07;;;19.00;74.90;;;;;;5020102;28;20435;-87
2022/06/15 00:43:29;;;;;;;8.10;5.70;;;18.90;75.20;;;;;;5024821;28;20451;-88
2022/06/15 00:45:56;;;;;;;6.17;5.57;;;18.80;76.00;;;;;;5027580;28;21093;-88
2022/06/15 00:48:22;;;;;;;8.60;6.80;;;18.70;76.30;;;;;;5021515;28;20472;-87
2022/06/15 00:50:50;;;;;;;6.80;6.07;;;18.70;76.70;;;;;;5018205;28;20537;-88
2022/06/15 00:53:17;;;;;;;8.20;6.40;;;18.70;76.90;;;;;;5019953;28;20827;-87
2022/06/15 00:55:45;;;;;;;7.60;6.80;;;18.60;77.10;;;;;;5021111;28;20826;-88
2022/06/15 00:58:15;;;;;;;7.00;6.30;;;18.60;76.80;;;;;;5020911;28;20883;-88
2022/06/15 01:00:41;;;;;;;6.50;5.90;;;18.50;77.10;;;;;;5016703;28;20489;-87
2022/06/15 01:03:11;;;;;;;6.00;5.40;;;18.50;77.00;;;;;;5018641;28;20441;-87
2022/06/15 01:05:45;;;;;;;7.50;5.20;;;18.50;78.20;;;;;;5016159;28;20442;-88
2022/06/15 01:08:18;;;;;;;6.90;6.20;;;18.40;79.30;;;;;;5015253;28;20469;-87
2022/06/15 01:10:58;;;;;;;6.70;6.00;;;18.20;78.40;;;;;;5017724;28;20807;-87
2022/06/15 01:13:41;;;;;;;7.67;5.70;;;18.10;78.90;;;;;;5027712;28;20450;-88
2022/06/15 01:16:15;;;;;;;7.27;5.80;;;18.00;79.50;;;;;;5038051;28;20434;-89
2022/06/15 01:18:50;;;;;;;7.87;6.00;;;18.10;80.30;;;;;;5225493;22;20939;-88
2022/06/15 01:21:23;;;;;;;8.93;6.07;;;18.10;80.20;;;;;;5083349;28;20439;-87
2022/06/15 01:24:17;;;;;;;7.40;5.77;;;18.10;80.40;;;;;;5080318;28;20936;-87
2022/06/15 01:27:25;;;;;;;7.37;5.80;;;18.10;80.00;;;;;;5072137;28;20443;-87
2022/06/15 01:30:13;;;;;;;7.53;5.60;;;18.20;79.80;;;;;;5066038;28;20443;-87
2022/06/15 01:32:47;;;;;;;8.40;7.60;;;18.10;79.50;;;;;;5060264;28;20438;-87
2022/06/15 01:35:21;;;;;;;6.13;5.53;;;18.10;80.10;;;;;;5064723;28;20435;-87
2022/06/15 01:37:54;;;;;;;7.47;5.97;;;18.00;80.40;;;;;;5062184;28;20466;-87
2022/06/15 01:40:28;;;;;;;9.20;5.23;;;18.00;80.50;;;;;;5058515;28;20485;-87
2022/06/15 01:42:59;;;;;;;7.83;5.70;;;18.00;80.40;;;;;;5058296;28;20453;-87
2022/06/15 01:45:31;;;;;;;7.00;6.30;;;18.10;80.10;;;;;;5060929;28;20451;-87
2022/06/15 01:48:00;;;;;;;6.30;5.70;;;18.00;80.00;;;;;;5061878;28;20471;-87
2022/06/15 01:50:33;;;;;;;7.30;6.60;;;18.00;80.50;;;;;;5064265;28;20443;-87
2022/06/15 01:53:05;;;;;;;8.50;6.53;;;18.00;80.80;;;;;;5063945;28;20968;-87
2022/06/15 01:55:36;;;;;;;6.83;6.13;;;18.00;81.40;;;;;;5062765;28;20456;-87
2022/06/15 01:58:07;;;;;;;9.70;6.80;;;18.00;81.70;;;;;;5056864;28;20469;-86
2022/06/15 02:00:37;;;;;;;9.23;6.77;;;18.00;82.10;;;;;;5080444;28;20458;-87
2022/06/15 02:03:10;;;;;;;9.00;6.53;;;17.90;82.50;;;;;;5076406;28;20504;-87
2022/06/15 02:05:43;;;;;;;7.73;7.03;;;17.90;82.90;;;;;;5068576;28;20425;-87
2022/06/15 02:08:22;;;;;;;9.40;7.90;;;17.90;83.00;;;;;;5078752;28;20459;-87
2022/06/15 02:10:57;;;;;;;11.07;9.80;;;17.80;83.80;;;;;;5079023;28;20444;-88
2022/06/15 02:13:30;;;;;;;10.53;7.43;;;17.60;84.60;;;;;;5074904;28;20433;-88
2022/06/15 02:16:04;;;;;;;8.83;6.47;;;17.60;85.50;;;;;;5055154;28;20833;-88
2022/06/15 02:18:34;;;;;;;9.07;6.30;;;17.50;85.90;;;;;;5052835;28;20469;-87
2022/06/15 02:21:05;;;;;;;9.07;7.40;;;17.40;86.00;;;;;;5054738;28;20487;-87
2022/06/15 02:23:34;;;;;;;7.83;6.90;;;17.30;87.00;;;;;;5071005;28;20495;-87
2022/06/15 02:26:02;;;;;;;8.50;6.60;;;17.20;88.10;;;;;;5080259;28;20445;-87
2022/06/15 02:28:35;;;;;;;8.60;7.30;;;17.20;88.90;;;;;;5052339;28;20461;-87
2022/06/15 02:31:04;;;;;;;11.10;7.70;;;17.20;89.70;;;;;;5064362;28;20449;-87
2022/06/15 02:33:33;;;;;;;8.60;7.70;;;17.20;90.20;;;;;;5078880;28;20438;-87
2022/06/15 02:36:02;;;;;;;7.90;6.77;;;17.30;90.40;;;;;;5064887;28;20807;-87
2022/06/15 02:38:30;;;;;;;7.00;6.03;;;17.30;90.70;;;;;;5067126;28;20464;-88
2022/06/15 02:40:58;;;;;;;8.83;7.67;;;17.20;90.90;;;;;;5058258;28;20586;-87
2022/06/15 02:43:27;;;;;;;9.83;7.47;;;17.20;90.90;;;;;;5050596;28;21031;-88
2022/06/15 02:45:56;;;;;;;8.67;6.17;;;17.30;90.80;;;;;;5054029;28;20448;-88
2022/06/15 02:48:24;;;;;;;8.37;7.30;;;17.20;90.60;;;;;;5057109;28;20470;-88
2022/06/15 02:51:02;;;;;;;9.83;7.23;;;17.20;90.90;;;;;;5064630;28;20566;-87
2022/06/15 02:53:31;;;;;;;8.13;7.33;;;17.00;91.30;;;;;;5057783;28;20456;-89
2022/06/15 02:55:59;;;;;;;9.97;6.80;;;17.00;91.70;;;;;;5049565;28;20443;-88
2022/06/15 02:58:29;;;;;;;12.60;8.17;;;17.00;92.00;;;;;;5053631;28;20457;-88
2022/06/15 03:00:56;;;;;;;11.30;8.60;;;17.00;92.40;;;;;;5046420;28;20488;-88
2022/06/15 03:03:25;;;;;;;10.37;7.30;;;17.00;92.50;;;;;;5067332;28;20448;-89
2022/06/15 03:05:53;;;;;;;7.70;6.97;;;16.90;92.80;;;;;;5081357;28;20534;-87
2022/06/15 03:08:21;;;;;;;12.57;8.30;;;16.90;93.20;;;;;;5068613;28;20457;-87
2022/06/15 03:10:49;;;;;;;13.83;9.40;;;16.90;93.30;;;;;;5080665;28;20428;-86
2022/06/15 03:13:16;;;;;;;14.17;8.73;;;16.90;93.30;;;;;;5068916;28;20919;-86
2022/06/15 03:15:43;;;;;;;11.30;8.73;;;16.80;94.10;;;;;;5072300;28;20440;-87
2022/06/15 03:18:10;;;;;;;11.77;8.57;;;16.60;94.30;;;;;;5060746;28;20469;-87
2022/06/15 03:20:38;;;;;;;9.77;8.77;;;16.60;94.60;;;;;;5054394;28;20482;-87
2022/06/15 03:23:06;;;;;;;13.30;8.40;;;16.50;94.70;;;;;;5059004;28;20934;-87
2022/06/15 03:25:33;;;;;;;11.80;8.10;;;16.50;94.90;;;;;;5051705;28;20494;-87
2022/06/15 03:28:00;;;;;;;8.80;7.90;;;16.50;95.30;;;;;;5055964;28;20460;-87
2022/06/15 03:30:27;;;;;;;11.83;9.00;;;16.40;95.00;;;;;;5058000;28;20440;-86
2022/06/15 03:32:53;;;;;;;11.67;7.30;;;16.40;95.20;;;;;;5058477;28;20440;-86
2022/06/15 03:35:20;;;;;;;12.23;8.90;;;16.40;95.30;;;;;;5063154;28;20920;-87
2022/06/15 03:37:49;;;;;;;9.03;7.80;;;16.40;95.60;;;;;;5062549;28;20456;-87
2022/06/15 03:40:16;;;;;;;10.90;8.50;;;16.30;95.80;;;;;;5047602;28;20515;-88
2022/06/15 03:42:43;;;;;;;14.60;9.10;;;16.30;96.10;;;;;;5060503;28;20448;-87
2022/06/15 03:45:12;;;;;;;10.80;9.37;;;16.40;96.10;;;;;;5064182;28;20941;-87
2022/06/15 03:47:39;;;;;;;10.30;9.33;;;16.40;96.20;;;;;;5051762;28;20830;-87
2022/06/15 03:50:06;;;;;;;10.97;9.20;;;16.40;96.60;;;;;;5055154;28;20448;-86
2022/06/15 03:52:33;;;;;;;13.23;10.10;;;16.40;96.80;;;;;;5055295;28;20444;-86
2022/06/15 03:55:01;;;;;;;10.93;9.37;;;16.40;97.00;;;;;;5063417;28;20446;-86
2022/06/15 03:57:28;;;;;;;13.97;9.70;;;16.30;97.30;;;;;;5060382;28;20461;-87
2022/06/15 03:59:55;;;;;;;14.87;9.90;;;16.30;97.70;;;;;;5057460;28;20495;-86
2022/06/15 04:02:21;;;;;;;14.87;10.20;;;16.30;98.20;;;;;;5064500;28;20952;-87
2022/06/15 04:04:48;;;;;;;14.80;10.37;;;16.30;98.50;;;;;;5058798;28;20892;-87
2022/06/15 04:10:03;;;;;;;14.57;11.00;;;16.30;98.90;;;;;;5037891;28;20415;-87
2022/06/15 04:12:29;;;;;;;18.07;10.00;;;16.30;99.20;;;;;;5057071;28;20815;-87
2022/06/15 04:14:56;;;;;;;22.30;11.60;;;16.40;99.30;;;;;;5058064;28;20464;-86
2022/06/15 04:17:23;;;;;;;12.60;11.30;;;16.40;99.40;;;;;;5061667;28;20451;-86
2022/06/15 04:22:30;;;;;;;13.77;9.77;;;16.50;99.50;;;;;;5056295;28;20423;-87
2022/06/15 04:24:57;;;;;;;12.20;10.20;;;16.50;99.20;;;;;;5067391;28;20432;-86
2022/06/15 04:27:25;;;;;;;11.73;10.47;;;16.60;99.60;;;;;;5079026;28;20428;-87
2022/06/15 04:29:52;;;;;;;14.13;10.73;;;16.60;99.50;;;;;;5071319;28;20451;-87
2022/06/15 04:32:19;;;;;;;15.40;10.80;;;16.60;99.40;;;;;;5081734;28;20442;-86
2022/06/15 04:34:45;;;;;;;17.33;11.67;;;16.60;99.20;;;;;;5077245;28;20447;-86
2022/06/15 04:37:12;;;;;;;15.13;12.23;;;16.60;99.20;;;;;;5062762;28;20443;-87
2022/06/15 04:39:39;;;;;;;15.30;11.00;;;16.70;99.70;;;;;;5062361;28;20442;-87
2022/06/15 04:42:06;;;;;;;15.57;11.40;;;16.60;99.20;;;;;;5064900;28;20444;-87
2022/06/15 04:44:34;;;;;;;17.43;11.20;;;16.70;99.60;;;;;;5072383;28;20424;-87
2022/06/15 04:47:03;;;;;;;12.90;11.50;;;16.70;99.30;;;;;;5065385;28;20441;-87
2022/06/15 04:49:30;;;;;;;15.73;12.90;;;16.80;99.20;;;;;;5053503;28;20864;-86
2022/06/15 04:51:57;;;;;;;16.60;12.33;;;16.80;99.10;;;;;;5062861;28;20443;-87
2022/06/15 04:54:24;;;;;;;15.47;12.77;;;16.90;99.00;;;;;;5063646;28;20451;-86
2022/06/15 04:56:50;;;;;;;14.60;11.33;;;16.90;98.80;;;;;;5064572;28;20447;-87
2022/06/15 04:59:19;;;;;;;12.23;10.80;;;17.00;98.70;;;;;;5053945;28;20452;-87
2022/06/15 05:01:47;;;;;;;18.23;12.23;;;17.00;98.90;;;;;;5060416;28;20483;-86
2022/06/15 05:04:13;;;;;;;16.17;11.60;;;17.00;99.20;;;;;;5078006;28;20452;-87
2022/06/15 05:06:41;;;;;;;13.43;10.40;;;17.10;99.30;;;;;;5082366;28;20435;-87
2022/06/15 05:09:11;;;;;;;13.30;10.17;;;17.20;98.90;;;;;;5074637;28;20470;-86
2022/06/15 05:11:38;;;;;;;19.97;11.10;;;17.30;98.60;;;;;;5063974;28;20440;-85
2022/06/15 05:14:05;;;;;;;15.30;8.80;;;17.40;97.80;;;;;;5063429;28;20440;-87
2022/06/15 05:16:32;;;;;;;11.60;8.87;;;17.50;97.80;;;;;;5062771;28;20503;-86
2022/06/15 05:19:01;;;;;;;14.33;7.70;;;17.60;97.80;;;;;;5066259;28;20467;-86
2022/06/15 05:21:28;;;;;;;12.50;8.60;;;17.80;97.00;;;;;;5064262;28;20859;-87
2022/06/15 05:23:55;;;;;;;11.23;8.00;;;18.40;95.80;;;;;;5058910;28;20945;-87
2022/06/15 05:26:24;;;;;;;9.80;8.20;;;19.20;93.90;;;;;;5060771;28;20438;-85
2022/06/15 05:28:51;;;;;;;12.97;7.27;;;20.00;91.60;;;;;;5062818;28;20467;-87
2022/06/15 05:31:20;;;;;;;10.53;7.60;;;20.90;89.30;;;;;;5062716;28;20963;-87
2022/06/15 05:33:53;;;;;;;10.40;6.90;;;21.60;84.50;;;;;;5060596;28;20475;-87
2022/06/15 05:36:24;;;;;;;8.13;6.90;;;22.50;80.90;;;;;;5046782;28;20500;-87
2022/06/15 05:38:51;;;;;;;14.10;8.97;;;22.90;76.10;;;;;;5056787;28;20478;-87
2022/06/15 05:41:18;;;;;;;9.77;7.17;;;23.40;74.60;;;;;;5063242;28;20863;-87
2022/06/15 05:43:46;;;;;;;11.50;7.20;;;23.90;72.10;;;;;;5067135;28;20810;-88
2022/06/15 05:46:15;;;;;;;10.40;7.60;;;24.20;69.80;;;;;;5058616;28;20455;-87
2022/06/15 05:48:41;;;;;;;9.03;7.50;;;24.50;67.50;;;;;;5056188;28;20991;-87
2022/06/15 05:51:08;;;;;;;11.00;7.33;;;25.00;66.30;;;;;;5066057;28;20459;-88
2022/06/15 05:53:36;;;;;;;11.40;6.53;;;25.40;64.80;;;;;;5067065;28;20533;-87
2022/06/15 05:56:03;;;;;;;8.83;6.20;;;25.70;62.60;;;;;;5056514;28;20470;-87
2022/06/15 05:58:30;;;;;;;5.83;4.73;;;25.80;61.50;;;;;;5055354;28;20553;-87
2022/06/15 06:00:56;;;;;;;6.77;6.07;;;26.00;61.00;;;;;;5053206;22;20497;-83
2022/06/15 06:03:23;;;;;;;8.20;5.57;;;26.20;60.00;;;;;;5021210;28;20442;-84
2022/06/15 06:05:50;;;;;;;8.87;5.33;;;26.30;59.30;;;;;;5021671;28;20449;-85
2022/06/15 06:08:16;;;;;;;8.63;6.47;;;26.50;59.70;;;;;;5024725;28;20442;-83
2022/06/15 06:10:44;;;;;;;10.57;6.13;;;26.80;59.10;;;;;;5044992;28;20437;-82
2022/06/15 06:13:12;;;;;;;7.80;5.53;;;27.10;57.80;;;;;;5037162;28;20446;-84
2022/06/15 06:15:38;;;;;;;6.70;5.80;;;27.20;57.30;;;;;;5022479;28;20449;-82
2022/06/15 06:18:05;;;;;;;7.53;5.93;;;27.30;57.00;;;;;;5032774;28;20441;-84
2022/06/15 06:20:32;;;;;;;8.73;5.70;;;27.90;56.80;;;;;;5035058;28;20485;-84
2022/06/15 06:22:58;;;;;;;10.23;6.13;;;28.30;55.40;;;;;;5030488;28;20442;-85
2022/06/15 06:25:25;;;;;;;9.50;6.10;;;28.60;54.90;;;;;;5017958;28;20442;-84
2022/06/15 06:27:53;;;;;;;13.00;6.13;;;28.80;54.40;;;;;;5018277;28;20463;-84
2022/06/15 06:30:21;;;;;;;8.80;5.70;;;29.00;53.30;;;;;;5018916;28;20492;-84
2022/06/15 06:32:48;;;;;;;12.83;5.70;;;28.60;53.10;;;;;;5017187;28;20452;-85
2022/06/15 06:35:15;;;;;;;10.73;6.07;;;28.30;53.50;;;;;;5016718;28;20453;-86
2022/06/15 06:37:42;;;;;;;8.53;5.80;;;28.60;53.60;;;;;;5016846;28;20434;-86
2022/06/15 06:40:13;;;;;;;7.90;6.20;;;29.20;53.10;;;;;;5017875;28;20481;-86
2022/06/15 06:42:40;;;;;;;8.10;5.37;;;29.50;51.50;;;;;;5017173;28;20442;-85
2022/06/15 06:45:11;;;;;;;5.47;4.97;;;29.20;51.40;;;;;;5019668;28;20446;-85
2022/06/15 06:47:37;;;;;;;6.67;4.50;;;29.70;51.20;;;;;;5027420;28;20446;-85
2022/06/15 06:50:05;;;;;;;7.53;5.40;;;30.20;49.90;;;;;;5016956;28;20467;-83
2022/06/15 06:52:32;;;;;;;6.47;5.40;;;30.80;49.50;;;;;;5015973;28;20966;-84
2022/06/15 06:54:58;;;;;;;6.20;4.63;;;30.80;48.80;;;;;;5016537;28;20865;-84
2022/06/15 06:57:25;;;;;;;8.23;5.53;;;31.00;48.30;;;;;;5015606;28;20449;-86
2022/06/15 06:59:52;;;;;;;9.63;4.33;;;31.00;48.30;;;;;;5018670;28;20474;-83
2022/06/15 07:02:20;;;;;;;6.00;5.17;;;31.00;48.30;;;;;;5023437;28;20478;-86
2022/06/15 07:04:47;;;;;;;5.63;5.03;;;31.40;49.00;;;;;;5023619;28;20457;-84
2022/06/15 07:07:13;;;;;;;8.83;4.83;;;31.80;47.30;;;;;;5019708;28;20838;-86
2022/06/15 07:09:40;;;;;;;11.30;6.30;;;31.70;45.80;;;;;;5017306;28;20466;-86
2022/06/15 07:12:08;;;;;;;7.37;6.17;;;31.50;46.40;;;;;;5016549;28;20442;-85
2022/06/15 07:14:34;;;;;;;5.80;4.73;;;31.80;46.30;;;;;;5017010;28;20445;-84
2022/06/15 07:17:01;;;;;;;8.53;4.70;;;31.80;45.50;;;;;;5016362;28;20452;-85
2022/06/15 07:19:29;;;;;;;10.83;6.03;;;32.30;46.10;;;;;;5020014;28;20822;-83
2022/06/15 07:21:56;;;;;;;58.30;14.40;;;32.20;44.50;;;;;;5024738;28;20497;-82
2022/06/15 07:24:23;;;;;;;12.70;6.13;;;32.30;44.90;;;;;;5024960;28;20449;-82
2022/06/15 07:26:49;;;;;;;8.00;4.93;;;32.60;43.80;;;;;;5023369;28;20456;-83
2022/06/15 07:29:18;;;;;;;9.80;5.80;;;32.30;44.10;;;;;;5019134;28;20978;-85
2022/06/15 07:31:48;;;;;;;5.80;4.30;;;32.60;44.40;;;;;;5016180;28;20818;-84
2022/06/15 07:34:14;;;;;;;5.70;5.10;;;33.10;44.10;;;;;;5021075;28;20453;-84
2022/06/15 07:36:46;;;;;;;5.50;5.07;;;33.60;43.40;;;;;;5029385;28;20820;-82
2022/06/15 07:39:14;;;;;;;8.70;4.43;;;33.90;42.60;;;;;;5022964;28;20545;-85
2022/06/15 07:41:41;;;;;;;8.07;4.27;;;33.50;42.60;;;;;;5016610;28;20482;-85
2022/06/15 07:44:08;;;;;;;9.90;5.90;;;33.90;42.80;;;;;;5019467;28;20461;-83
2022/06/15 07:46:35;;;;;;;6.07;5.43;;;34.00;42.50;;;;;;5023471;28;20516;-85
2022/06/15 07:51:51;;;;;;;5.33;4.80;;;34.50;42.40;;;;;;5004884;28;20548;-84
2022/06/15 07:54:19;;;;;;;9.37;5.00;;;34.20;41.80;;;;;;5026796;28;20474;-82
2022/06/15 07:56:46;;;;;;;6.20;4.60;;;33.90;42.00;;;;;;5029862;28;20453;-83
2022/06/15 07:59:14;;;;;;;6.20;5.40;;;34.30;41.80;;;;;;5025753;28;20477;-84
2022/06/15 08:01:41;;;;;;;8.87;5.00;;;34.20;42.00;;;;;;5023972;28;20481;-84
2022/06/15 08:04:08;;;;;;;8.70;5.50;;;34.10;42.40;;;;;;5020772;28;20446;-85
2022/06/15 08:06:37;;;;;;;8.80;5.67;;;34.80;41.60;;;;;;5019329;28;20975;-84
2022/06/15 08:09:09;;;;;;;5.60;4.97;;;35.60;41.00;;;;;;5019468;28;20540;-83
2022/06/15 08:11:36;;;;;;;5.53;4.53;;;35.80;40.30;;;;;;5027553;28;20450;-84
2022/06/15 08:14:02;;;;;;;5.73;4.73;;;35.70;40.10;;;;;;5021203;28;20503;-85
2022/06/15 08:16:29;;;;;;;5.47;4.97;;;36.20;39.90;;;;;;5037201;28;20980;-85
2022/06/15 08:18:59;;;;;;;5.33;4.83;;;35.70;40.00;;;;;;5037079;28;20449;-84
2022/06/15 08:21:29;;;;;;;4.97;4.43;;;36.20;40.30;;;;;;5036560;28;20483;-86
2022/06/15 08:23:58;;;;;;;6.80;4.07;;;36.10;40.30;;;;;;5035787;28;20448;-86
2022/06/15 08:26:30;;;;;;;6.60;4.77;;;36.20;40.20;;;;;;5036255;28;20456;-85
2022/06/15 08:29:00;;;;;;;5.13;4.50;;;36.60;39.80;;;;;;5035790;28;20457;-85
2022/06/15 08:31:27;;;;;;;9.50;5.07;;;36.30;39.30;;;;;;5036475;28;20938;-85
2022/06/15 08:33:54;;;;;;;5.97;4.73;;;36.80;38.60;;;;;;5036174;28;20452;-86
2022/06/15 08:36:21;;;;;;;5.00;4.50;;;35.80;40.30;;;;;;5037336;28;20453;-86
2022/06/15 08:38:48;;;;;;;5.80;4.67;;;36.70;39.10;;;;;;5035763;28;20449;-84
2022/06/15 08:41:24;;;;;;;5.00;4.33;;;36.90;38.50;;;;;;5037299;28;20492;-85
2022/06/15 08:44:03;;;;;;;6.97;4.40;;;37.20;38.00;;;;;;5054883;28;20845;-83
2022/06/15 08:46:44;;;;;;;11.13;10.33;;;37.20;37.00;;;;;;5044581;28;20445;-85
2022/06/15 08:49:22;;;;;;;6.90;4.40;;;37.10;37.00;;;;;;5047711;28;20476;-83
2022/06/15 08:51:56;;;;;;;4.40;4.00;;;36.90;36.90;;;;;;5040193;28;20449;-84
2022/06/15 08:54:28;;;;;;;4.10;3.67;;;37.50;36.40;;;;;;5041016;28;20456;-85
2022/06/15 08:57:00;;;;;;;8.83;4.83;;;37.70;35.40;;;;;;5040051;28;20449;-86
2022/06/15 08:59:36;;;;;;;5.23;4.03;;;37.80;36.80;;;;;;5041344;28;20572;-86
2022/06/15 09:02:12;;;;;;;5.33;4.33;;;37.70;36.80;;;;;;5041450;28;20933;-87
2022/06/15 09:04:46;;;;;;;5.67;4.30;;;38.00;37.00;;;;;;5046398;28;20475;-86
2022/06/15 09:07:24;;;;;;;4.00;3.60;;;38.20;36.50;;;;;;5052630;28;20445;-84
2022/06/15 09:10:08;;;;;;;4.13;3.73;;;38.80;36.00;;;;;;5052940;28;20461;-85
2022/06/15 09:12:50;;;;;;;5.03;4.30;;;39.40;34.90;;;;;;5047867;28;20532;-89
2022/06/15 09:15:30;;;;;;;4.27;3.80;;;40.10;34.60;;;;;;5043980;28;20480;-86
2022/06/15 09:17:59;;;;;;;5.47;3.70;;;39.80;34.20;;;;;;5042186;28;20445;-84
2022/06/15 09:20:29;;;;;;;5.40;4.43;;;39.70;33.40;;;;;;5041134;28;20979;-86
2022/06/15 09:23:01;;;;;;;4.17;3.87;;;39.70;34.50;;;;;;5042341;28;20897;-85
2022/06/15 09:25:34;;;;;;;6.90;3.90;;;40.00;33.80;;;;;;5041776;28;20946;-86
2022/06/15 09:28:06;;;;;;;6.10;4.00;;;40.00;33.50;;;;;;5041715;28;20455;-86
2022/06/15 09:30:38;;;;;;;4.50;3.90;;;39.50;34.50;;;;;;5042536;28;20477;-86
2022/06/15 09:33:11;;;;;;;5.67;3.60;;;40.20;33.70;;;;;;5043912;28;20475;-84
2022/06/15 09:35:42;;;;;;;6.50;3.90;;;40.60;32.70;;;;;;5043256;28;20449;-84
2022/06/15 09:38:12;;;;;;;5.00;4.00;;;40.70;32.40;;;;;;5040845;28;20453;-84
2022/06/15 09:40:47;;;;;;;4.63;4.03;;;39.30;33.10;;;;;;5040352;28;20468;-85
2022/06/15 09:43:22;;;;;;;5.60;3.43;;;39.50;33.60;;;;;;5039516;28;20480;-85
2022/06/15 09:45:59;;;;;;;5.30;3.80;;;40.40;33.30;;;;;;5041672;28;20476;-84
2022/06/15 09:48:34;;;;;;;6.60;4.37;;;40.70;33.00;;;;;;5042239;28;20445;-85
2022/06/15 09:51:07;;;;;;;6.77;4.33;;;41.50;32.70;;;;;;5043443;28;20479;-85
2022/06/15 09:53:42;;;;;;;5.60;3.80;;;41.70;31.80;;;;;;5042162;28;20445;-85
2022/06/15 09:56:12;;;;;;;4.73;3.97;;;41.60;31.80;;;;;;5041856;28;20468;-85
2022/06/15 09:58:45;;;;;;;4.77;4.37;;;40.40;31.90;;;;;;5041079;28;20480;-85
2022/06/15 10:01:13;;;;;;;6.10;4.03;;;39.80;32.30;;;;;;5041699;28;20485;-85
2022/06/15 10:03:43;;;;;;;4.80;3.80;;;40.30;32.70;;;;;;5042121;28;20452;-84
2022/06/15 10:06:20;;;;;;;4.63;4.10;;;41.10;31.50;;;;;;5042258;28;20894;-84
2022/06/15 10:08:47;;;;;;;6.30;4.20;;;41.30;31.20;;;;;;5045244;28;20445;-85
2022/06/15 10:11:19;;;;;;;4.30;3.90;;;41.20;30.80;;;;;;5047216;28;20465;-85
2022/06/15 10:13:46;;;;;;;4.60;3.93;;;42.10;30.00;;;;;;5048849;28;20456;-85
2022/06/15 10:16:31;;;;;;;4.23;3.83;;;42.90;29.80;;;;;;5046090;28;20865;-85
2022/06/15 10:19:06;;;;;;;4.47;4.07;;;42.70;29.50;;;;;;5045891;28;20452;-84
2022/06/15 10:21:36;;;;;;;6.43;4.07;;;41.60;30.00;;;;;;5056174;28;20492;-86
2022/06/15 10:24:06;;;;;;;7.53;3.67;;;40.70;30.70;;;;;;5054896;28;20468;-83
2022/06/15 10:26:37;;;;;;;5.70;3.97;;;40.80;30.50;;;;;;5053066;28;20445;-79
2022/06/15 10:29:27;;;;;;;7.70;4.13;;;41.90;30.60;;;;;;5051633;28;20449;-82
2022/06/15 10:32:18;;;;;;;4.70;3.70;;;40.80;29.00;;;;;;5054877;28;20447;-82
2022/06/15 10:34:54;;;;;;;6.07;3.70;;;41.10;30.10;;;;;;5044382;28;20484;-82
2022/06/15 10:37:25;;;;;;;6.20;3.97;;;42.40;29.60;;;;;;5054301;28;20445;-83
2022/06/15 10:39:55;;;;;;;5.10;4.17;;;43.30;28.80;;;;;;5048534;28;20492;-83
2022/06/15 10:42:25;;;;;;;6.47;3.97;;;42.50;29.00;;;;;;5047373;28;20507;-83
2022/06/15 10:44:55;;;;;;;4.20;3.90;;;44.10;28.70;;;;;;5046835;28;20449;-85
2022/06/15 10:47:28;;;;;;;4.63;4.17;;;44.60;28.00;;;;;;5046472;28;20456;-84
2022/06/15 10:50:00;;;;;;;4.97;3.70;;;44.40;28.20;;;;;;5045995;28;21001;-82
2022/06/15 10:52:35;;;;;;;3.83;3.53;;;44.70;28.00;;;;;;5050823;28;20488;-84
2022/06/15 11:04:15;;;;;;;6.33;4.00;;;44.70;27.80;;;;;;5049633;28;20448;-83
2022/06/15 11:06:46;;;;;;;4.77;4.13;;;45.90;27.60;;;;;;5049255;28;20449;-82
2022/06/15 11:09:30;;;;;;;4.47;3.77;;;45.70;27.80;;;;;;5047445;28;20517;-84
2022/06/15 11:12:00;;;;;;;4.23;3.20;;;45.90;27.00;;;;;;5045684;28;20481;-84
2022/06/15 11:14:32;;;;;;;3.50;3.20;;;46.60;26.70;;;;;;5044928;28;20822;-85
2022/06/15 11:20:07;;;;;;;4.67;3.70;;;46.20;26.30;;;;;;5046487;28;20872;-85
2022/06/15 11:22:34;;;;;;;3.30;3.00;;;45.40;26.80;;;;;;5043114;28;20437;-82
2022/06/15 11:25:06;;;;;;;3.90;3.60;;;45.00;26.60;;;;;;5045857;28;20445;-84
2022/06/15 11:27:38;;;;;;;3.63;3.33;;;44.10;26.90;;;;;;5045588;28;20453;-84
2022/06/15 11:30:17;;;;;;;5.90;3.00;;;44.20;27.20;;;;;;5046200;28;20466;-83
2022/06/15 11:32:46;;;;;;;3.67;3.13;;;45.10;26.60;;;;;;5046997;28;20568;-83
2022/06/15 11:35:28;;;;;;;3.23;2.93;;;46.10;25.90;;;;;;5044885;28;20456;-83
2022/06/15 11:38:03;;;;;;;3.30;2.93;;;46.50;25.40;;;;;;5047205;28;20448;-82
2022/06/15 11:40:39;;;;;;;3.30;2.93;;;46.10;25.00;;;;;;5047720;28;20461;-84
2022/06/15 11:43:14;;;;;;;3.37;2.87;;;46.90;24.90;;;;;;5048008;28;20433;-82
2022/06/15 11:45:54;;;;;;;3.63;3.13;;;46.70;24.70;;;;;;5046465;28;20441;-82
2022/06/15 11:48:30;;;;;;;4.60;3.20;;;45.60;25.40;;;;;;5045760;28;20453;-82
2022/06/15 11:51:06;;;;;;;3.47;3.17;;;45.60;25.60;;;;;;5042950;28;20465;-83
2022/06/15 11:53:44;;;;;;;3.20;2.73;;;46.20;25.00;;;;;;5045285;28;20555;-82
2022/06/15 11:56:15;;;;;;;5.10;3.50;;;46.90;24.70;;;;;;5046164;28;20501;-83
2022/06/15 11:58:51;;;;;;;2.60;2.40;;;47.10;24.00;;;;;;5046285;28;20459;-83
2022/06/15 12:01:30;;;;;;;2.70;2.50;;;47.70;23.90;;;;;;5048167;28;20437;-84
2022/06/15 12:04:33;;;;;;;3.37;2.70;;;46.00;23.40;;;;;;5047871;28;20443;-82
2022/06/15 12:07:07;;;;;;;3.70;3.00;;;45.40;24.10;;;;;;5055147;28;20448;-83
2022/06/15 12:09:53;;;;;;;3.07;2.80;;;45.30;24.10;;;;;;5051706;28;20468;-82
2022/06/15 12:12:39;;;;;;;2.80;2.60;;;44.60;25.00;;;;;;5054855;28;20480;-82
2022/06/15 12:15:21;;;;;;;2.97;2.77;;;43.60;25.50;;;;;;5052221;28;20437;-83
2022/06/15 12:17:55;;;;;;;3.23;2.93;;;45.10;25.40;;;;;;5047977;28;20442;-83
2022/06/15 12:20:35;;;;;;;3.23;2.93;;;45.40;25.10;;;;;;5046312;28;20472;-84
2022/06/15 12:23:15;;;;;;;6.33;3.00;;;46.00;25.70;;;;;;5047058;28;20433;-84
2022/06/15 12:25:49;;;;;;;4.80;3.23;;;47.10;25.30;;;;;;5044798;28;20449;-83
2022/06/15 12:28:22;;;;;;;3.90;3.60;;;47.20;24.80;;;;;;5045704;28;20529;-83
2022/06/15 12:30:55;;;;;;;5.47;3.10;;;47.80;24.60;;;;;;5050475;28;20453;-81
2022/06/15 12:33:31;;;;;;;3.73;3.10;;;48.00;24.70;;;;;;5054094;28;20854;-83
2022/06/15 12:36:04;;;;;;;4.00;3.30;;;48.10;24.30;;;;;;5042341;28;20440;-83
2022/06/15 12:38:53;;;;;;;4.10;3.70;;;47.50;24.30;;;;;;5035840;28;20453;-85
2022/06/15 12:44:17;;;;;;;3.60;3.30;;;47.70;25.00;;;;;;5047942;28;20424;-83
2022/06/15 12:46:45;;;;;;;3.07;2.87;;;47.40;24.00;;;;;;5051975;28;20461;-83
2022/06/15 12:49:22;;;;;;;4.00;3.50;;;46.40;24.50;;;;;;5047337;28;21006;-81
2022/06/15 12:51:58;;;;;;;3.43;3.00;;;46.10;24.40;;;;;;5049723;28;20437;-83
2022/06/15 12:54:34;;;;;;;3.60;3.20;;;45.30;24.30;;;;;;5049947;28;20532;-81
2022/06/15 12:57:06;;;;;;;3.90;3.50;;;46.00;25.20;;;;;;5043820;28;20476;-83
2022/06/15 12:59:48;;;;;;;3.00;2.80;;;46.50;24.90;;;;;;5043565;28;20519;-84
2022/06/15 13:02:22;;;;;;;4.40;3.20;;;45.20;24.70;;;;;;5022411;28;20438;-81
2022/06/15 13:05:02;;;;;;;4.53;3.27;;;44.10;25.40;;;;;;5022973;28;20437;-81
2022/06/15 13:07:31;;;;;;;4.03;3.50;;;44.20;25.90;;;;;;5018035;28;20444;-85
2022/06/15 13:10:16;;;;;;;2.87;2.57;;;43.80;26.50;;;;;;5004941;28;20991;-83
2022/06/15 13:12:45;;;;;;;3.87;2.93;;;44.30;25.50;;;;;;5018090;28;20503;-83
2022/06/15 13:15:25;;;;;;;3.53;3.23;;;43.20;25.80;;;;;;5014654;28;20446;-84
2022/06/15 13:18:08;;;;;;;3.60;2.90;;;43.40;26.20;;;;;;5010645;28;20453;-84
2022/06/15 13:21:02;;;;;;;5.40;4.00;;;44.10;25.90;;;;;;5000441;28;20554;-83
2022/06/15 13:23:32;;;;;;;4.43;2.83;;;44.50;25.10;;;;;;5001141;28;20474;-83
2022/06/15 13:26:06;;;;;;;4.00;3.07;;;44.90;25.30;;;;;;5004801;28;20872;-79